createdAt,value
2018-03-31T00:01:21.154Z,11.00
2018-03-31T00:03:48.266Z,11.00
2018-03-31T00:06:15.512Z,11.00
2018-03-31T00:08:43.409Z,11.10
2018-03-31T00:11:11.256Z,11.10
2018-03-31T00:13:38.388Z,11.10
2018-03-31T00:16:05.482Z,11.10
2018-03-31T00:18:32.672Z,11.10
2018-03-31T00:20:59.790Z,11.10
2018-03-31T00:23:27.652Z,11.10
2018-03-31T00:25:55.572Z,11.10
2018-03-31T00:28:22.667Z,11.10
2018-03-31T00:30:49.737Z,11.10
2018-03-31T00:33:17.620Z,11.10
2018-03-31T00:35:44.715Z,11.00
2018-03-31T00:38:11.816Z,11.00
2018-03-31T00:40:38.917Z,11.00
2018-03-31T00:43:06.040Z,13.40
2018-03-31T00:45:33.170Z,11.00
2018-03-31T00:48:00.342Z,10.90
2018-03-31T00:50:27.464Z,10.90
2018-03-31T00:52:54.581Z,10.90
2018-03-31T00:55:21.708Z,10.90
2018-03-31T00:57:48.813Z,11.00
2018-03-31T01:00:16.001Z,11.00
2018-03-31T01:02:43.097Z,10.90
2018-03-31T01:05:11.014Z,11.10
2018-03-31T01:07:38.113Z,11.10
2018-03-31T01:10:06.020Z,10.80
2018-03-31T01:12:33.115Z,10.80
2018-03-31T01:15:00.319Z,10.90
2018-03-31T01:17:27.401Z,11.00
2018-03-31T01:19:54.544Z,11.00
2018-03-31T01:22:21.635Z,10.80
2018-03-31T01:24:48.756Z,10.70
2018-03-31T01:27:15.829Z,10.80
2018-03-31T01:29:43.701Z,10.60
2018-03-31T01:32:11.557Z,10.60
2018-03-31T01:34:39.809Z,10.60
2018-03-31T01:37:06.943Z,10.30
2018-03-31T01:39:34.111Z,10.00
2018-03-31T01:42:01.303Z,10.20
2018-03-31T01:44:28.445Z,10.40
2018-03-31T01:46:56.314Z,10.40
2018-03-31T01:49:24.168Z,10.50
2018-03-31T01:51:52.048Z,10.50
2018-03-31T01:54:19.953Z,10.30
2018-03-31T01:56:47.074Z,10.30
2018-03-31T01:59:14.174Z,10.30
2018-03-31T02:01:41.264Z,10.40
2018-03-31T02:04:09.120Z,10.50
2018-03-31T02:06:36.979Z,10.40
2018-03-31T02:09:04.841Z,10.50
2018-03-31T02:11:32.074Z,10.50
2018-03-31T02:13:59.228Z,10.50
2018-03-31T02:16:26.344Z,10.60
2018-03-31T02:18:54.285Z,10.30
2018-03-31T02:21:21.603Z,10.20
2018-03-31T02:23:48.873Z,10.10
2018-03-31T02:26:15.964Z,10.20
2018-03-31T02:28:43.092Z,10.30
2018-03-31T02:31:10.993Z,10.30
2018-03-31T02:33:38.086Z,10.30
2018-03-31T02:36:05.198Z,10.40
2018-03-31T02:38:32.302Z,10.40
2018-03-31T02:41:00.636Z,10.40
2018-03-31T02:43:28.139Z,10.40
2018-03-31T02:45:55.262Z,10.40
2018-03-31T02:48:22.349Z,10.50
2018-03-31T02:50:49.520Z,10.50
2018-03-31T02:53:16.656Z,10.40
2018-03-31T02:55:43.749Z,10.40
2018-03-31T02:58:10.895Z,10.40
2018-03-31T03:00:38.010Z,10.30
2018-03-31T03:03:05.152Z,10.20
2018-03-31T03:05:32.388Z,10.20
2018-03-31T03:07:59.572Z,10.40
2018-03-31T03:10:26.803Z,10.40
2018-03-31T03:12:53.941Z,10.40
2018-03-31T03:15:21.065Z,10.30
2018-03-31T03:17:48.311Z,10.20
2018-03-31T03:20:15.436Z,11.90
2018-03-31T03:22:42.642Z,10.20
2018-03-31T03:25:10.531Z,10.30
2018-03-31T03:27:37.655Z,10.30
2018-03-31T03:30:04.737Z,10.40
2018-03-31T03:32:31.861Z,10.30
2018-03-31T03:34:59.737Z,10.10
2018-03-31T03:37:27.602Z,10.10
2018-03-31T03:39:55.491Z,10.20
2018-03-31T03:42:22.609Z,10.10
2018-03-31T03:44:50.493Z,10.20
2018-03-31T03:47:18.386Z,10.20
2018-03-31T03:49:45.480Z,10.20
2018-03-31T03:52:12.621Z,10.20
2018-03-31T03:54:40.539Z,10.20
2018-03-31T03:57:07.644Z,10.20
2018-03-31T03:59:35.519Z,10.10
2018-03-31T04:02:02.674Z,10.10
2018-03-31T04:04:29.790Z,10.20
2018-03-31T04:06:57.648Z,10.10
2018-03-31T04:09:24.773Z,10.10
2018-03-31T04:11:52.703Z,10.20
2018-03-31T04:14:19.864Z,10.20
2018-03-31T04:16:46.975Z,10.30
2018-03-31T04:19:14.103Z,10.30
2018-03-31T04:21:41.205Z,10.00
2018-03-31T04:24:08.307Z,10.10
2018-03-31T04:26:35.402Z,10.20
2018-03-31T04:29:02.533Z,10.20
2018-03-31T04:31:29.652Z,10.10
2018-03-31T04:33:56.833Z,10.20
2018-03-31T04:36:23.930Z,10.20
2018-03-31T04:38:51.820Z,10.10
2018-03-31T04:41:18.960Z,10.10
2018-03-31T04:43:46.887Z,10.20
2018-03-31T04:46:13.982Z,10.10
2018-03-31T04:48:41.860Z,10.00
2018-03-31T04:51:08.987Z,10.00
2018-03-31T04:53:36.152Z,10.00
2018-03-31T04:56:03.339Z,10.10
2018-03-31T04:58:30.464Z,10.10
2018-03-31T05:00:57.597Z,10.10
2018-03-31T05:03:24.715Z,10.00
2018-03-31T05:05:52.599Z,9.90
2018-03-31T05:08:19.726Z,10.00
2018-03-31T05:10:47.609Z,10.10
2018-03-31T05:13:15.532Z,10.10
2018-03-31T05:15:42.632Z,10.10
2018-03-31T05:18:09.757Z,10.20
2018-03-31T05:20:36.898Z,10.20
2018-03-31T05:23:04.800Z,10.10
2018-03-31T05:25:31.937Z,10.00
2018-03-31T05:27:59.810Z,9.90
2018-03-31T05:30:26.914Z,9.90
2018-03-31T05:32:54.246Z,10.00
2018-03-31T05:35:21.380Z,9.80
2018-03-31T05:37:48.543Z,9.90
2018-03-31T05:40:15.666Z,9.90
2018-03-31T05:42:42.763Z,9.90
2018-03-31T05:45:09.878Z,9.90
2018-03-31T05:47:37.003Z,9.90
2018-03-31T05:50:04.879Z,9.90
2018-03-31T05:52:31.986Z,9.90
2018-03-31T05:54:59.092Z,9.80
2018-03-31T05:57:26.169Z,9.80
2018-03-31T05:59:53.367Z,9.90
2018-03-31T06:02:21.235Z,10.10
2018-03-31T06:04:49.099Z,10.10
2018-03-31T06:07:17.019Z,10.20
2018-03-31T06:09:44.132Z,10.20
2018-03-31T06:12:11.235Z,10.30
2018-03-31T06:14:38.371Z,10.30
2018-03-31T06:17:05.472Z,10.30
2018-03-31T06:19:32.588Z,10.20
2018-03-31T06:21:59.803Z,10.30
2018-03-31T06:24:26.907Z,10.40
2018-03-31T06:26:54.775Z,10.50
2018-03-31T06:29:22.627Z,10.60
2018-03-31T06:31:49.745Z,10.70
2018-03-31T06:34:16.854Z,10.70
2018-03-31T06:36:43.968Z,10.70
2018-03-31T06:39:11.187Z,10.60
2018-03-31T06:41:38.304Z,10.60
2018-03-31T06:44:05.394Z,10.60
2018-03-31T06:46:32.500Z,10.50
2018-03-31T06:48:59.580Z,10.60
2018-03-31T06:51:26.691Z,10.70
2018-03-31T06:53:54.549Z,10.90
2018-03-31T06:56:22.448Z,10.90
2018-03-31T06:58:49.555Z,10.80
2018-03-31T07:01:17.432Z,11.00
2018-03-31T07:03:45.315Z,11.20
2018-03-31T07:06:12.431Z,11.20
2018-03-31T07:08:39.505Z,11.20
2018-03-31T07:11:07.373Z,11.40
2018-03-31T07:13:35.240Z,11.40
2018-03-31T07:16:03.165Z,11.40
2018-03-31T07:18:30.250Z,11.40
2018-03-31T07:20:57.369Z,11.60
2018-03-31T07:23:24.511Z,11.60
2018-03-31T07:25:52.378Z,11.70
2018-03-31T07:28:19.784Z,11.70
2018-03-31T07:30:46.899Z,11.70
2018-03-31T07:33:14.063Z,11.70
2018-03-31T07:35:41.200Z,11.90
2018-03-31T07:38:08.264Z,12.40
2018-03-31T07:40:35.337Z,12.70
2018-03-31T07:43:02.457Z,12.80
2018-03-31T07:45:29.530Z,13.20
2018-03-31T07:47:56.624Z,13.50
2018-03-31T07:50:24.549Z,13.30
2018-03-31T07:52:51.629Z,13.30
2018-03-31T07:55:18.697Z,12.70
2018-03-31T07:57:46.552Z,12.10
2018-03-31T08:00:14.394Z,12.10
2018-03-31T08:02:41.497Z,12.10
2018-03-31T08:05:08.600Z,12.10
2018-03-31T08:07:35.937Z,12.20
2018-03-31T08:10:03.405Z,12.10
2018-03-31T08:12:30.531Z,12.10
2018-03-31T08:14:57.616Z,12.20
2018-03-31T08:17:24.722Z,12.20
2018-03-31T08:19:51.825Z,12.20
2018-03-31T08:22:19.698Z,12.20
2018-03-31T08:24:47.544Z,12.30
2018-03-31T08:27:14.649Z,12.20
2018-03-31T08:29:41.807Z,12.30
2018-03-31T08:32:09.939Z,12.40
2018-03-31T08:34:37.784Z,12.50
2018-03-31T08:37:04.876Z,12.50
2018-03-31T08:39:31.967Z,12.60
2018-03-31T08:41:59.079Z,12.60
2018-03-31T08:44:26.590Z,12.50
2018-03-31T08:46:53.686Z,12.60
2018-03-31T08:49:20.761Z,12.60
2018-03-31T08:51:47.866Z,12.60
2018-03-31T08:54:14.971Z,12.70
2018-03-31T08:56:42.056Z,12.70
2018-03-31T08:59:09.973Z,12.50
2018-03-31T09:01:37.063Z,12.50
2018-03-31T09:04:04.938Z,12.70
2018-03-31T09:06:32.786Z,12.50
2018-03-31T09:08:59.881Z,12.50
2018-03-31T09:11:26.956Z,12.40
2018-03-31T09:13:54.066Z,12.50
2018-03-31T09:16:21.823Z,12.80
2018-03-31T09:18:49.687Z,12.90
2018-03-31T09:21:17.541Z,12.90
2018-03-31T09:23:45.418Z,12.90
2018-03-31T09:26:13.321Z,13.00
2018-03-31T09:28:44.395Z,13.00
2018-03-31T09:31:11.480Z,13.10
2018-03-31T09:33:39.378Z,13.00
2018-03-31T09:36:06.452Z,13.00
2018-03-31T09:38:33.682Z,13.10
2018-03-31T09:41:00.766Z,13.30
2018-03-31T09:43:27.928Z,13.50
2018-03-31T09:45:55.789Z,13.60
2018-03-31T09:48:23.612Z,13.60
2018-03-31T09:50:50.671Z,13.60
2018-03-31T09:53:17.837Z,13.60
2018-03-31T09:55:44.911Z,13.60
2018-03-31T09:58:12.749Z,14.00
2018-03-31T10:00:39.844Z,14.00
2018-03-31T10:03:07.710Z,13.60
2018-03-31T10:05:35.541Z,13.60
2018-03-31T10:08:02.621Z,13.60
2018-03-31T10:10:30.539Z,13.70
2018-03-31T10:12:58.386Z,13.90
2018-03-31T10:15:25.473Z,13.80
2018-03-31T10:17:53.531Z,14.10
2018-03-31T10:20:20.639Z,14.10
2018-03-31T10:22:47.729Z,14.40
2018-03-31T10:25:14.822Z,14.60
2018-03-31T10:27:41.947Z,14.70
2018-03-31T10:30:09.276Z,14.80
2018-03-31T10:32:36.363Z,14.70
2018-03-31T10:35:03.477Z,14.70
2018-03-31T10:37:30.565Z,14.90
2018-03-31T10:39:58.444Z,14.70
2018-03-31T10:42:26.278Z,14.50
2018-03-31T10:44:54.212Z,14.40
2018-03-31T10:47:21.424Z,14.40
2018-03-31T10:49:49.322Z,14.20
2018-03-31T10:52:16.398Z,14.20
2018-03-31T10:54:43.504Z,14.20
2018-03-31T10:57:10.576Z,14.40
2018-03-31T10:59:37.674Z,14.40
2018-03-31T11:02:05.597Z,14.50
2018-03-31T11:04:32.684Z,14.50
2018-03-31T11:06:59.742Z,14.60
2018-03-31T11:09:27.604Z,14.70
2018-03-31T11:11:55.478Z,15.10
2018-03-31T11:14:23.359Z,15.10
2018-03-31T11:16:50.441Z,15.10
2018-03-31T11:19:17.523Z,15.10
2018-03-31T11:21:44.614Z,15.00
2018-03-31T11:24:11.788Z,15.00
2018-03-31T11:26:38.876Z,15.30
2018-03-31T11:29:05.957Z,15.20
2018-03-31T11:31:33.123Z,15.50
2018-03-31T11:34:00.360Z,15.90
2018-03-31T11:36:27.468Z,16.10
2018-03-31T11:38:54.753Z,16.10
2018-03-31T11:41:22.724Z,16.30
2018-03-31T11:43:50.764Z,16.60
2018-03-31T11:46:18.012Z,16.60
2018-03-31T11:48:45.159Z,16.60
2018-03-31T11:51:12.428Z,16.90
2018-03-31T11:53:40.297Z,17.50
2018-03-31T11:56:07.402Z,17.50
2018-03-31T11:58:34.528Z,17.70
2018-03-31T12:01:01.819Z,17.70
2018-03-31T12:03:28.902Z,16.30
2018-03-31T12:05:56.794Z,17.20
2018-03-31T12:08:23.880Z,17.20
2018-03-31T12:10:51.571Z,17.50
2018-03-31T12:13:18.640Z,18.00
2018-03-31T12:15:45.735Z,18.20
2018-03-31T12:18:13.583Z,18.30
2018-03-31T12:20:41.645Z,18.30
2018-03-31T12:23:08.914Z,18.30
2018-03-31T12:25:36.761Z,18.80
2018-03-31T12:28:03.929Z,18.70
2018-03-31T12:30:31.825Z,19.40
2018-03-31T12:32:59.109Z,19.30
2018-03-31T12:35:26.244Z,19.70
2018-03-31T12:37:53.359Z,20.00
2018-03-31T12:40:20.606Z,20.20
2018-03-31T12:42:48.723Z,19.90
2018-03-31T12:45:15.804Z,19.80
2018-03-31T12:47:42.987Z,20.10
2018-03-31T12:50:10.821Z,20.50
2018-03-31T12:52:37.918Z,20.40
2018-03-31T12:55:05.018Z,20.20
2018-03-31T12:57:32.209Z,19.70
2018-03-31T12:59:59.388Z,19.40
2018-03-31T13:02:27.260Z,18.60
2018-03-31T13:04:55.262Z,18.20
2018-03-31T13:07:22.468Z,18.20
2018-03-31T13:09:49.645Z,17.70
2018-03-31T13:12:17.499Z,18.40
2018-03-31T13:14:49.106Z,19.10
2018-03-31T13:17:16.216Z,19.10
2018-03-31T13:19:44.067Z,20.50
2018-03-31T13:22:11.175Z,20.50
2018-03-31T13:24:38.261Z,20.90
2018-03-31T13:27:06.230Z,21.30
2018-03-31T13:29:33.360Z,21.30
2018-03-31T13:32:01.276Z,21.30
2018-03-31T13:34:29.131Z,22.00
2018-03-31T13:36:56.206Z,21.90
2018-03-31T13:39:24.004Z,22.30
2018-03-31T13:41:51.876Z,21.80
2018-03-31T13:44:19.028Z,21.80
2018-03-31T13:46:47.266Z,21.70
2018-03-31T13:49:15.128Z,21.70
2018-03-31T13:51:43.038Z,21.50
2018-03-31T13:54:10.186Z,21.40
2018-03-31T13:56:37.253Z,21.10
2018-03-31T13:59:04.450Z,21.00
2018-03-31T14:01:32.275Z,20.70
2018-03-31T14:03:59.394Z,20.60
2018-03-31T14:08:56.158Z,21.90
2018-03-31T14:11:23.242Z,21.90
2018-03-31T14:13:50.372Z,21.70
2018-03-31T14:16:17.484Z,22.10
2018-03-31T14:18:46.324Z,21.70
2018-03-31T14:21:13.446Z,21.70
2018-03-31T14:23:40.527Z,21.00
2018-03-31T14:26:07.621Z,20.80
2018-03-31T14:28:34.725Z,20.40
2018-03-31T14:31:02.288Z,20.60
2018-03-31T14:33:29.421Z,21.20
2018-03-31T14:35:56.518Z,22.00
2018-03-31T14:38:23.687Z,22.10
2018-03-31T14:40:50.906Z,22.20
2018-03-31T14:43:18.744Z,22.80
2018-03-31T14:45:46.612Z,22.80
2018-03-31T14:48:13.702Z,22.80
2018-03-31T14:50:40.810Z,22.90
2018-03-31T14:53:08.675Z,22.70
2018-03-31T14:55:36.570Z,22.50
2018-03-31T14:58:03.641Z,22.50
2018-03-31T15:00:30.755Z,22.10
2018-03-31T15:02:58.408Z,21.90
2018-03-31T15:05:26.291Z,22.40
2018-03-31T15:07:53.400Z,22.40
2018-03-31T15:10:20.533Z,22.70
2018-03-31T15:12:47.672Z,23.20
2018-03-31T15:15:14.805Z,23.50
2018-03-31T15:17:41.915Z,23.10
2018-03-31T15:20:09.891Z,22.70
2018-03-31T15:22:37.724Z,23.40
2018-03-31T15:25:04.822Z,23.40
2018-03-31T15:27:32.685Z,23.90
2018-03-31T15:29:59.781Z,23.90
2018-03-31T15:32:26.906Z,23.70
2018-03-31T15:34:54.079Z,22.90
2018-03-31T15:37:21.157Z,23.00
2018-03-31T15:39:49.034Z,23.40
2018-03-31T15:42:17.006Z,23.00
2018-03-31T15:44:44.123Z,23.00
2018-03-31T15:47:11.218Z,23.10
2018-03-31T15:49:38.332Z,23.40
2018-03-31T15:52:05.397Z,23.40
2018-03-31T15:54:33.250Z,23.00
2018-03-31T15:57:01.146Z,22.50
2018-03-31T15:59:28.213Z,22.50
2018-03-31T16:01:55.452Z,21.80
2018-03-31T16:04:22.523Z,21.10
2018-03-31T16:06:49.612Z,20.20
2018-03-31T16:09:16.709Z,19.80
2018-03-31T16:11:43.810Z,19.50
2018-03-31T16:14:12.319Z,19.60
2018-03-31T16:16:39.450Z,19.50
2018-03-31T16:19:06.542Z,19.40
2018-03-31T16:21:33.709Z,19.50
2018-03-31T16:24:00.786Z,19.40
2018-03-31T16:26:29.803Z,19.10
2018-03-31T16:28:56.901Z,19.10
2018-03-31T16:31:23.983Z,18.80
2018-03-31T16:33:51.816Z,18.10
2018-03-31T16:36:18.915Z,18.00
2018-03-31T16:38:47.144Z,17.60
2018-03-31T16:41:14.254Z,17.60
2018-03-31T16:43:41.346Z,17.20
2018-03-31T16:46:08.469Z,17.10
2018-03-31T16:48:35.564Z,16.80
2018-03-31T16:51:03.488Z,17.00
2018-03-31T16:53:30.560Z,17.00
2018-03-31T16:55:57.673Z,17.40
2018-03-31T16:58:24.766Z,17.80
2018-03-31T17:00:51.848Z,18.00
2018-03-31T17:03:18.952Z,18.10
2018-03-31T17:05:46.047Z,18.00
2018-03-31T17:08:13.145Z,17.80
2018-03-31T17:10:40.398Z,17.80
2018-03-31T17:13:07.500Z,18.00
2018-03-31T17:15:34.596Z,18.00
2018-03-31T17:18:01.707Z,18.00
2018-03-31T17:20:28.780Z,17.90
2018-03-31T17:22:55.888Z,17.60
2018-03-31T17:25:22.980Z,17.20
2018-03-31T17:27:50.079Z,17.00
2018-03-31T17:30:17.164Z,16.60
2018-03-31T17:32:44.264Z,16.30
2018-03-31T17:35:12.111Z,16.00
2018-03-31T17:37:39.229Z,16.00
2018-03-31T17:40:06.330Z,16.00
2018-03-31T17:42:34.449Z,15.90
2018-03-31T17:45:01.545Z,15.80
2018-03-31T17:47:29.412Z,15.70
2018-03-31T17:49:57.276Z,15.60
2018-03-31T17:52:25.193Z,15.50
2018-03-31T17:54:52.439Z,15.40
2018-03-31T17:57:19.595Z,15.30
2018-03-31T17:59:46.664Z,15.30
2018-03-31T18:02:13.774Z,15.10
2018-03-31T18:04:40.863Z,14.90
2018-03-31T18:07:07.967Z,14.90
2018-03-31T18:09:35.204Z,14.70
2018-03-31T18:12:03.045Z,14.50
2018-03-31T18:14:30.179Z,14.50
2018-03-31T18:16:57.845Z,14.40
2018-03-31T18:19:24.973Z,14.30
2018-03-31T18:21:52.065Z,14.20
2018-03-31T18:24:19.955Z,14.00
2018-03-31T18:26:47.129Z,13.90
2018-03-31T18:29:14.247Z,13.90
2018-03-31T18:31:42.120Z,13.70
2018-03-31T18:34:09.212Z,13.70
2018-03-31T18:36:36.304Z,13.50
2018-03-31T18:39:04.314Z,13.20
2018-03-31T18:41:31.405Z,13.20
2018-03-31T18:43:58.578Z,13.10
2018-03-31T18:46:25.729Z,13.10
2018-03-31T18:48:52.839Z,13.00
2018-03-31T18:51:20.717Z,12.90
2018-03-31T18:53:48.712Z,12.80
2018-03-31T18:56:15.781Z,12.80
2018-03-31T18:58:42.912Z,12.80
2018-03-31T19:01:10.292Z,12.80
2018-03-31T19:03:37.415Z,12.80
2018-03-31T19:06:04.499Z,12.80
2018-03-31T19:08:31.624Z,12.80
2018-03-31T19:10:58.911Z,12.70
2018-03-31T19:13:25.964Z,12.70
2018-03-31T19:15:53.073Z,12.60
2018-03-31T19:18:20.179Z,12.50
2018-03-31T19:20:48.109Z,12.40
2018-03-31T19:23:15.242Z,12.40
2018-03-31T19:25:42.391Z,12.40
2018-03-31T19:28:09.508Z,12.40
2018-03-31T19:30:42.480Z,12.20
2018-03-31T19:33:10.346Z,12.30
2018-03-31T19:35:43.840Z,12.30
2018-03-31T19:38:11.687Z,12.20
2018-03-31T19:40:39.201Z,12.20
2018-03-31T19:43:06.305Z,12.20
2018-03-31T19:45:33.447Z,12.20
2018-03-31T19:48:00.546Z,12.10
2018-03-31T19:50:27.726Z,12.10
2018-03-31T19:52:54.788Z,12.00
2018-03-31T19:55:22.660Z,11.90
2018-03-31T19:57:49.798Z,11.90
2018-03-31T20:00:16.892Z,11.90
2018-03-31T20:02:44.067Z,11.80
2018-03-31T20:05:11.176Z,11.70
2018-03-31T20:07:38.261Z,11.70
2018-03-31T20:10:05.352Z,11.70
2018-03-31T20:12:33.450Z,11.70
2018-03-31T20:15:00.564Z,11.60
2018-03-31T20:17:27.781Z,11.60
2018-03-31T20:19:54.875Z,11.50
2018-03-31T20:22:21.988Z,11.50
2018-03-31T20:24:50.381Z,11.50
2018-03-31T20:27:18.278Z,11.30
2018-03-31T20:29:45.368Z,11.30
2018-03-31T20:32:12.483Z,11.30
2018-03-31T20:34:39.576Z,10.20
2018-03-31T20:37:07.072Z,11.20
2018-03-31T20:39:34.155Z,11.10
2018-03-31T20:42:01.254Z,11.10
2018-03-31T20:44:29.085Z,10.90
2018-03-31T20:46:56.199Z,10.90
2018-03-31T20:49:24.164Z,10.80
2018-03-31T20:51:51.274Z,10.80
2018-03-31T20:54:18.355Z,10.80
2018-03-31T20:56:45.447Z,10.80
2018-03-31T20:59:12.526Z,10.90
2018-03-31T21:01:43.214Z,10.90
2018-03-31T21:04:10.649Z,11.00
2018-03-31T21:06:37.745Z,11.00
2018-03-31T21:09:04.812Z,10.90
2018-03-31T21:11:32.010Z,11.00
2018-03-31T21:13:59.100Z,11.00
2018-03-31T21:16:26.353Z,11.10
2018-03-31T21:18:53.502Z,11.10
2018-03-31T21:21:20.613Z,10.90
2018-03-31T21:23:47.730Z,11.00
2018-03-31T21:26:15.040Z,11.10
2018-03-31T21:28:42.100Z,11.20
2018-03-31T21:31:10.042Z,11.00
2018-03-31T21:33:37.179Z,11.00
2018-03-31T21:36:04.300Z,11.00
2018-03-31T21:38:31.643Z,11.00
2018-03-31T21:40:59.510Z,10.90
2018-03-31T21:43:27.541Z,11.00
2018-03-31T21:45:54.636Z,11.00
2018-03-31T21:48:22.677Z,11.10
2018-03-31T21:50:49.763Z,11.10
2018-03-31T21:53:19.913Z,11.20
2018-03-31T21:55:47.030Z,11.10
2018-03-31T21:58:14.317Z,11.20
2018-03-31T22:00:41.404Z,11.20
2018-03-31T22:03:08.505Z,11.20
2018-03-31T22:05:36.114Z,11.00
2018-03-31T22:08:03.232Z,11.00
2018-03-31T22:10:30.365Z,10.80
2018-03-31T22:16:08.965Z,10.90
2018-03-31T22:18:37.172Z,10.90
2018-03-31T22:21:04.798Z,10.80
2018-03-31T22:23:32.640Z,10.90
2018-03-31T22:25:59.709Z,10.90
2018-03-31T22:28:27.562Z,11.00
2018-03-31T22:30:54.614Z,11.00
2018-03-31T22:33:23.320Z,11.10
2018-03-31T22:35:51.801Z,11.10
2018-03-31T22:38:19.709Z,11.10
2018-03-31T22:40:46.778Z,11.10
2018-03-31T22:43:14.940Z,11.20
2018-03-31T22:45:43.985Z,11.20
2018-03-31T22:48:11.996Z,11.10
2018-03-31T22:50:39.900Z,11.60
2018-03-31T22:53:07.458Z,11.10
2018-03-31T22:55:34.697Z,11.10
2018-03-31T22:58:02.304Z,11.00
2018-03-31T23:00:30.320Z,11.10
2018-03-31T23:02:57.468Z,10.90
2018-03-31T23:05:25.434Z,10.90
2018-03-31T23:07:52.521Z,10.90
2018-03-31T23:10:19.793Z,11.10
2018-03-31T23:12:47.100Z,11.20
2018-03-31T23:15:14.186Z,11.10
2018-03-31T23:17:42.163Z,10.90
2018-03-31T23:20:09.334Z,10.90
2018-03-31T23:22:37.739Z,10.80
2018-03-31T23:25:07.498Z,10.80
2018-03-31T23:27:34.621Z,10.50
2018-03-31T23:30:01.747Z,10.70
2018-03-31T23:32:28.988Z,10.90
2018-03-31T23:35:04.575Z,11.00
2018-03-31T23:37:31.762Z,11.00
2018-03-31T23:39:59.184Z,11.00
2018-03-31T23:42:26.378Z,10.50
2018-03-31T23:44:54.093Z,10.60
2018-03-31T23:47:21.201Z,10.80
2018-03-31T23:49:49.215Z,11.10
2018-03-31T23:52:16.571Z,11.10
2018-03-31T23:54:44.778Z,11.10
2018-03-31T23:57:13.439Z,11.10
2018-03-31T23:59:41.359Z,11.10
